Latest Weather Observations for Coles Point

IDS60801

Issued at 5:32 am CDT Monday 22 December 2014 (issued every 30 minutes, with the page automatically refreshed every 10 minutes)

About weather observations | Map of weather stations | Latest weather observations for SA | Other Formats
Station Details ID: 018191 Name: COLES POINT Lat: -34.37 Lon: 135.37 Height: 28.0 m
Data from the previous 72 hours. | See also: Recent months at Coles Point
Date/Time
CDT
Temp
°C
App
Temp
°C
Dew
Point
Rel
Hum
%
Delta-T
°C
Wind Press
QNH
hPa
Press
MSL
hPa
Rain
since 9 am
mm
Dir
 
Spd
km/h
Gust
km/h
Spd
kts
Gust
kts
22/05:30am 17.5 17.8 16.0 91 0.9 WNW 9 19 5 10 1008.2 1008.1 2.0
22/05:00am 17.9 17.5 15.2 84 1.6 WNW 11 17 6 9 1007.8 1007.7 1.8
22/04:30am 17.9 18.8 14.0 78 2.2 SSW 2 4 1 2 1007.1 1007.0 1.8
22/04:00am 18.2 17.2 14.5 79 2.1 ENE 13 17 7 9 1006.8 1006.7 1.8
22/03:30am 18.1 15.0 14.6 80 2.0 NE 24 30 13 16 1006.8 1006.7 1.8
22/03:00am 18.1 15.1 14.8 81 1.9 NE 24 33 13 18 1006.8 1006.7 1.8
22/02:30am 18.2 15.2 14.9 81 1.9 ENE 24 32 13 17 1007.1 1007.0 1.8
22/02:00am 18.3 16.3 15.0 81 1.9 NE 19 28 10 15 1007.3 1007.2 1.8
22/01:30am 18.2 15.9 14.7 80 2.0 ENE 20 28 11 15 1007.3 1007.2 1.8
22/01:00am 18.4 15.4 14.7 79 2.1 E 24 30 13 16 1007.3 1007.2 1.8
22/12:30am 17.8 13.6 14.7 82 1.8 ESE 30 39 16 21 1007.3 1007.2 1.8
22/12:00am 17.7 13.6 15.0 84 1.6 ESE 30 41 16 22 1007.9 1007.8 1.8
 
Date/Time
CDT
Temp
°C
App
Temp
°C
Dew
Point
Rel
Hum
%
Delta-T
°C
Wind Press
QNH
hPa
Press
MSL
hPa
Rain
since 9 am
mm
Dir
 
Spd
km/h
Gust
km/h
Spd
kts
Gust
kts
21/11:30pm 17.6 13.6 15.2 86 1.4 ESE 30 39 16 21 1008.5 1008.4 1.8
21/11:00pm 17.6 12.8 15.6 88 1.2 SE 35 46 19 25 1008.2 1008.1 1.8
21/10:30pm 17.6 14.6 15.8 89 1.1 SE 26 32 14 17 1009.7 1009.6 1.6
21/10:00pm 17.8 13.8 16.1 90 1.0 SE 32 43 17 23 1009.5 1009.4 1.6
21/09:30pm 18.1 14.1 16.3 89 1.1 SE 32 41 17 22 1009.4 1009.3 1.6
21/09:00pm 19.4 16.7 17.5 89 1.2 SE 28 35 15 19 1009.8 1009.7 1.6
21/08:30pm 19.9 19.2 18.2 90 1.1 SSE 19 26 10 14 1010.4 1010.3 1.6
21/08:00pm 20.5 21.1 16.9 80 2.2 SW 9 20 5 11 1010.8 1010.7 1.6
21/07:30pm 22.0 22.6 18.6 81 2.1 NNE 13 15 7 8 1010.5 1010.4 1.4
21/07:00pm 22.9 22.4 17.8 73 3.2 N 17 20 9 11 1010.1 1010.0 0.8
21/06:30pm 23.8 23.7 17.8 69 3.8 NNE 15 20 8 11 1009.6 1009.5 0.8
21/06:00pm 24.0 23.6 18.0 69 3.8 NNE 17 22 9 12 1009.4 1009.3 0.8
21/05:30pm 23.6 23.9 17.1 67 4.0 ENE 11 15 6 8 1009.1 1009.0 0.8
21/05:15pm 24.2 23.0 17.4 65 4.2 E 20 28 11 15 1008.8 1008.7 0.6
21/05:00pm 29.2 27.2 12.6 36 9.8 E 15 19 8 10 1008.5 1008.4 0.0
21/04:30pm 30.0 28.9 12.0 33 10.5 SE 9 19 5 10 1008.0 1007.9 0.0
21/04:00pm 29.8 28.1 12.3 34 10.3 SSE 13 19 7 10 1008.2 1008.1 0.0
21/03:30pm 30.6 28.0 12.0 32 10.9 SE 17 28 9 15 1008.5 1008.4 0.0
21/03:00pm 29.8 27.1 11.8 33 10.5 SE 17 26 9 14 1008.8 1008.7 0.0
21/02:30pm 29.3 24.3 12.3 35 10.0 SSE 30 37 16 20 1008.7 1008.6 0.0
21/02:00pm 30.4 25.5 13.7 36 10.0 SSE 32 39 17 21 1008.5 1008.4 0.0
21/01:30pm 30.8 26.2 13.6 35 10.4 SSE 30 37 16 20 1008.6 1008.5 0.0
21/01:00pm 29.6 26.5 13.4 37 9.7 SSE 22 32 12 17 1008.8 1008.7 0.0
21/12:30pm 31.5 28.8 11.8 30 11.6 SSE 17 28 9 15 1009.0 1008.9 0.0
21/12:00pm 28.9 26.8 15.1 43 8.4 SSE 20 26 11 14 1009.7 1009.6 0.0
21/11:30am 29.1 27.7 14.5 41 8.8 SSE 15 20 8 11 1010.0 1009.9 0.0
21/11:00am 28.1 27.3 12.8 38 9.0 SW 9 11 5 6 1010.2 1010.1 0.0
21/10:30am 25.4 24.8 15.7 55 5.9 SW 13 15 7 8 1010.4 1010.3 0.0
21/10:00am 23.8 22.9 15.8 61 4.8 SW 15 20 8 11 1010.5 1010.4 0.0
21/09:30am 26.8 26.3 12.8 42 8.2 SSW 7 15 4 8 1010.1 1010.0 0.0
21/09:00am 24.5 24.4 10.8 42 7.7 S 2 6 1 3 1010.2 1010.1 0.0
21/08:30am 22.6 20.5 12.5 53 5.8 NE 15 22 8 12 1010.3 1010.2 0.0
21/08:00am 21.9 18.1 12.5 55 5.3 NE 24 30 13 16 1009.6 1009.5 0.0
21/07:30am 21.5 18.1 12.6 57 5.1 NE 22 28 12 15 1009.4 1009.3 0.0
21/07:00am 20.4 17.4 12.6 61 4.4 NNE 20 24 11 13 1009.3 1009.2 0.0
21/06:30am 18.9 15.2 12.6 67 3.5 NNE 24 28 13 15 1008.9 1008.8 0.0
21/06:00am 18.9 15.3 11.7 63 4.0 NNE 22 28 12 15 1008.6 1008.5 0.0
21/05:30am 18.3 14.8 12.1 67 3.4 NNE 22 28 12 15 1008.5 1008.4 0.0
21/05:00am 18.3 14.8 12.3 68 3.3 NNE 22 28 12 15 1008.7 1008.6 0.0
21/04:30am 18.5 14.6 12.0 66 3.6 NNE 24 30 13 16 1008.6 1008.5 0.0
21/04:00am 18.9 14.8 11.5 62 4.1 NNE 24 30 13 16 1008.6 1008.5 0.0
21/03:30am 18.8 15.3 10.9 60 4.3 NNE 20 24 11 13 1009.0 1008.9 0.0
21/03:00am 18.8 15.9 10.9 60 4.3 NE 17 19 9 10 1009.3 1009.2 0.0
21/02:30am 18.5 15.7 11.3 63 3.9 NE 17 20 9 11 1009.7 1009.6 0.0
21/02:00am 18.6 15.6 12.1 66 3.6 NNE 19 22 10 12 1010.3 1010.2 0.0
21/01:30am 19.1 16.7 11.4 61 4.2 NE 15 19 8 10 1010.9 1010.8 0.0
21/01:00am 18.6 15.6 10.7 60 4.3 NE 17 20 9 11 1011.5 1011.4 0.0
21/12:30am 18.7 15.8 11.0 61 4.2 NE 17 19 9 10 1012.2 1012.2 0.0
21/12:00am 18.6 16.4 10.7 60 4.3 NE 13 17 7 9 1012.6 1012.6 0.0
 
Date/Time
CDT
Temp
°C
App
Temp
°C
Dew
Point
Rel
Hum
%
Delta-T
°C
Wind Press
QNH
hPa
Press
MSL
hPa
Rain
since 9 am
mm
Dir
 
Spd
km/h
Gust
km/h
Spd
kts
Gust
kts
20/11:30pm 19.0 15.7 10.8 59 4.4 NE 19 22 10 12 1012.5 1012.5 0.0
20/11:00pm 19.6 16.0 10.6 56 4.9 NE 20 28 11 15 1012.2 1012.2 0.0
20/10:30pm 19.9 16.5 9.2 50 5.7 NE 17 24 9 13 1012.0 1012.0 0.0
20/10:00pm 19.6 17.1 8.0 47 6.0 ESE 11 13 6 7 1011.9 1011.9 0.0
20/09:30pm 19.9 17.4 8.3 47 6.0 ESE 11 15 6 8 1012.1 1012.1 0.0
20/09:00pm 21.0 18.5 8.0 43 6.8 ESE 11 13 6 7 1012.2 1012.2 0.0
20/08:30pm 23.1 19.6 7.2 36 8.3 ESE 15 20 8 11 1012.5 1012.5 0.0
20/08:00pm 24.6 20.4 8.1 35 8.8 ESE 20 26 11 14 1012.5 1012.5 0.0
20/07:30pm 26.3 22.2 7.8 31 9.9 SE 19 24 10 13 1012.5 1012.5 0.0
20/07:00pm 27.2 23.5 8.1 30 10.3 SE 17 22 9 12 1012.3 1012.3 0.0
20/06:30pm 27.9 24.9 9.2 31 10.3 ESE 15 20 8 11 1012.3 1012.3 0.0
20/06:00pm 28.9 26.2 9.1 29 11.0 E 13 19 7 10 1012.2 1012.2 0.0
20/05:30pm 27.8 27.0 11.8 37 9.2 NNE 7 11 4 6 1012.4 1012.4 0.0
20/05:00pm 27.2 25.7 13.2 42 8.2 W 13 17 7 9 1012.4 1012.4 0.0
20/04:30pm 25.5 23.8 14.6 51 6.5 WSW 17 20 9 11 1012.8 1012.8 0.0
20/04:00pm 25.4 22.9 14.2 50 6.6 SW 20 24 11 13 1013.4 1013.4 0.0
20/03:30pm 25.8 23.5 14.0 48 7.0 SW 19 24 10 13 1013.7 1013.7 0.0
20/03:00pm 24.6 22.4 14.4 53 6.1 SW 19 24 10 13 1014.2 1014.2 0.0
20/02:30pm 24.3 21.9 13.8 52 6.2 SW 19 24 10 13 1014.8 1014.8 0.0
20/02:00pm 23.4 20.6 13.3 53 5.9 SW 20 28 11 15 1015.5 1015.5 0.0
20/01:30pm 23.7 20.7 13.6 53 5.9 SW 22 28 12 15 1015.8 1015.8 0.0
20/01:00pm 23.7 20.8 12.4 49 6.5 SW 19 22 10 12 1016.2 1016.2 0.0
20/12:30pm 23.2 20.4 11.3 47 6.6 SW 17 22 9 12 1016.6 1016.6 0.0
20/12:00pm 22.4 20.1 10.5 47 6.5 WSW 13 17 7 9 1017.1 1017.1 0.0
20/11:30am 21.4 19.2 10.9 51 5.8 SW 13 17 7 9 1017.4 1017.4 0.0
20/11:00am 20.8 19.0 12.0 57 4.9 WSW 13 15 7 8 1018.0 1018.0 0.0
20/10:30am 20.6 18.9 12.3 59 4.7 SW 13 17 7 9 1018.2 1018.2 0.0
20/10:00am 20.9 20.3 11.8 56 5.1 ESE 6 13 3 7 1018.7 1018.6 0.0
20/09:30am 20.8 19.0 10.9 53 5.4 E 11 19 6 10 1018.7 1018.6 0.0
20/09:00am 19.7 17.8 11.7 60 4.4 NE 13 20 7 11 1019.0 1018.9 0.0
20/08:30am 19.0 16.4 12.0 64 3.9 NE 17 22 9 12 1018.9 1018.8 0.0
20/08:00am 17.1 15.3 12.0 72 2.8 ENE 13 17 7 9 1018.5 1018.4 0.0
20/07:30am 16.4 14.6 12.2 76 2.3 NE 13 17 7 9 1018.5 1018.4 0.0
20/07:00am 14.9 13.3 11.7 81 1.7 NE 11 15 6 8 1018.5 1018.4 0.0
20/06:30am 14.0 12.4 11.5 85 1.3 ENE 11 13 6 7 1018.4 1018.3 0.0
20/06:00am 13.9 12.2 11.2 84 1.4 NE 11 15 6 8 1018.2 1018.2 0.0
20/05:30am 14.0 12.0 11.5 85 1.3 NE 13 15 7 8 1018.1 1018.1 0.0
20/05:00am 13.4 11.6 10.8 84 1.4 NE 11 13 6 7 1018.0 1018.0 0.0
20/04:30am 14.1 12.0 11.3 83 1.5 NE 13 13 7 7 1018.2 1018.2 0.0
20/04:00am 13.9 12.1 10.9 82 1.6 NE 11 13 6 7 1018.2 1018.2 0.0
20/03:30am 13.5 12.0 10.7 83 1.5 ENE 9 11 5 6 1018.0 1018.0 0.0
20/03:00am 14.1 11.8 10.5 79 1.9 ENE 13 19 7 10 1018.1 1018.1 0.0
20/02:30am 12.6 11.3 9.8 83 1.4 E 7 13 4 7 1018.4 1018.3 0.0
20/02:00am 12.1 11.1 8.9 81 1.6 E 4 6 2 3 1018.6 1018.5 0.0
20/01:30am 12.6 11.6 8.9 78 1.9 E 4 6 2 3 1019.3 1019.2 0.0
20/01:00am 13.3 12.0 9.2 76 2.1 E 6 9 3 5 1019.6 1019.5 0.0
20/12:30am 13.3 12.1 9.4 77 2.0 ESE 6 9 3 5 1020.1 1020.0 0.0
20/12:00am 13.5 12.0 9.2 75 2.2 SE 7 9 4 5 1020.3 1020.2 0.0
 
Date/Time
CDT
Temp
°C
App
Temp
°C
Dew
Point
Rel
Hum
%
Delta-T
°C
Wind Press
QNH
hPa
Press
MSL
hPa
Rain
since 9 am
mm
Dir
 
Spd
km/h
Gust
km/h
Spd
kts
Gust
kts
19/11:30pm 14.0 12.6 9.0 72 2.5 SE 6 9 3 5 1020.6 1020.5 0.0
19/11:00pm 14.8 13.0 9.4 70 2.8 SE 9 13 5 7 1020.8 1020.7 0.0
19/10:30pm 15.1 12.5 9.5 69 2.9 SE 13 17 7 9 1020.8 1020.7 0.0
19/10:00pm 15.5 13.3 9.4 67 3.2 SE 11 17 6 9 1020.8 1020.7 0.0
19/09:30pm 16.0 13.4 9.4 65 3.4 SSE 13 19 7 10 1020.7 1020.6 0.0
19/09:00pm 16.5 13.5 9.2 62 3.8 SSE 15 20 8 11 1020.7 1020.6 0.0
19/08:30pm 17.2 13.9 9.4 60 4.1 S 17 24 9 13 1020.5 1020.4 0.0
19/08:00pm 18.0 14.0 9.1 56 4.6 S 20 28 11 15 1020.5 1020.4 0.0
19/07:30pm 18.6 13.9 9.4 55 4.8 S 24 32 13 17 1020.4 1020.3 0.0
19/07:00pm 19.4 14.9 10.1 55 5.0 S 24 32 13 17 1020.3 1020.2 0.0
19/06:30pm 19.4 14.4 9.6 53 5.2 S 26 33 14 18 1020.1 1020.0 0.0
19/06:00pm 19.6 14.7 9.8 53 5.2 SSW 26 33 14 18 1020.1 1020.0 0.0
19/05:30pm 19.8 14.5 8.5 48 5.9 SSW 26 33 14 18 1020.1 1020.0 0.0
19/05:00pm 20.6 15.7 8.6 46 6.3 SSW 24 32 13 17 1020.2 1020.1 0.0
19/04:30pm 20.3 15.4 8.6 47 6.1 SSW 24 33 13 18 1020.3 1020.2 0.0
19/04:00pm 20.7 15.8 8.4 45 6.4 SSW 24 30 13 16 1020.6 1020.5 0.0
19/03:30pm 20.6 16.1 8.6 46 6.3 SSW 22 32 12 17 1021.0 1020.9 0.0
19/03:00pm 20.5 15.8 7.8 44 6.5 SW 22 30 12 16 1021.2 1021.1 0.0
19/02:30pm 20.2 15.6 8.2 46 6.2 SW 22 28 12 15 1021.4 1021.3 0.0
19/02:00pm 19.8 15.4 9.1 50 5.6 WSW 22 28 12 15 1021.7 1021.6 0.0
19/01:30pm 20.3 16.4 8.6 47 6.1 WSW 19 24 10 13 1021.7 1021.6 0.0
19/01:00pm 19.3 15.0 9.5 53 5.2 WSW 22 28 12 15 1021.9 1021.8 0.0
19/12:30pm 19.5 15.4 10.0 54 5.1 WSW 22 26 12 14 1021.9 1021.8 0.0
19/12:00pm 19.1 15.5 9.9 55 4.9 WSW 19 22 10 12 1022.0 1021.9 0.0
19/11:30am 18.2 14.5 9.3 56 4.6 WSW 19 22 10 12 1022.1 1022.0 0.0
19/11:00am 18.6 15.6 9.4 55 4.8 SW 15 19 8 10 1022.1 1022.0 0.0
19/10:30am 18.4 15.8 9.2 55 4.8 SW 13 17 7 9 1021.8 1021.7 0.0
19/10:00am 18.0 15.3 8.8 55 4.8 SW 13 15 7 8 1021.8 1021.7 0.0
19/09:30am 17.1 15.1 8.5 57 4.4 SW 9 15 5 8 1021.8 1021.7 0.0
19/09:00am 17.6 16.4 8.2 54 4.8 S 4 7 2 4 1021.6 1021.5 0.0
19/08:30am 16.8 15.2 8.2 57 4.4 ENE 6 7 3 4 1021.4 1021.3 0.0
19/08:00am 15.1 14.2 7.6 61 3.7 NE 2 4 1 2 1021.0 1020.9 0.0
19/07:30am 12.5 10.5 7.2 70 2.6 ENE 7 11 4 6 1020.6 1020.5 0.0
19/07:00am 9.6 7.1 6.5 81 1.4 ENE 9 11 5 6 1020.2 1020.1 0.0
19/06:30am 9.4 8.2 6.5 82 1.3 NE 2 6 1 3 1019.8 1019.7 0.0
19/06:00am 9.0 7.0 6.1 82 1.3 NE 6 7 3 4 1019.5 1019.4 0.0

Other Formats:

Comma delimited format used in spreadsheet applications
http://www.bom.gov.au/fwo/IDS60801/IDS60801.94658.axf

JavaScript Object Notation format (JSON) in row-major order
http://www.bom.gov.au/fwo/IDS60801/IDS60801.94658.json